Bonifay, Florida
Current Conditions -  °F | °C
As of 5:58 AM on Sunday 25 Jan 2015 (Local Time) from K1J0 Reporting Station
Clear Clear  
Wind Chill: 32°   Ceiling: Unl
Heat Index: 32°   Visibility: 9mi
Dew Point: 31°   Wind: 0mph
Humidity: 96%   Direction: NA
Pressure: 30.07"   Gusts: NA
Location:  30.79°N, 85.68°W
Report Text: K1J0 251158Z AUTO 00000KT 9SM CLR 00/M01 A3007 RMK AO2 SLP168 T00001006 10022 20000 58001 $
Loading
Personal Weather Stations






























Interactive Weather Map New forecast layout! Learn more

10-Day Weather Forecast

Advertisements
Track Severe Weather on mobile